sensor_id;sensor_type;location;lat;lon;timestamp;temperature;humidity
66586;SHT30;53444;45.822;16.092;2022-10-10T00:00:45;12.34;77.96
66586;SHT30;53444;45.822;16.092;2022-10-10T00:03:12;12.44;78.15
66586;SHT30;53444;45.822;16.092;2022-10-10T00:05:39;12.52;77.60
66586;SHT30;53444;45.822;16.092;2022-10-10T00:08:07;12.54;77.52
66586;SHT30;53444;45.822;16.092;2022-10-10T00:10:34;12.52;78.07
66586;SHT30;53444;45.822;16.092;2022-10-10T00:13:01;12.41;77.77
66586;SHT30;53444;45.822;16.092;2022-10-10T00:15:28;12.42;77.80
66586;SHT30;53444;45.822;16.092;2022-10-10T00:17:55;12.37;78.31
66586;SHT30;53444;45.822;16.092;2022-10-10T00:20:22;12.27;78.48
66586;SHT30;53444;45.822;16.092;2022-10-10T00:22:49;12.21;77.90
66586;SHT30;53444;45.822;16.092;2022-10-10T00:25:17;12.14;78.17
66586;SHT30;53444;45.822;16.092;2022-10-10T00:27:43;12.29;77.43
66586;SHT30;53444;45.822;16.092;2022-10-10T00:30:10;12.29;77.69
66586;SHT30;53444;45.822;16.092;2022-10-10T00:32:37;12.48;77.62
66586;SHT30;53444;45.822;16.092;2022-10-10T00:35:05;12.52;77.20
66586;SHT30;53444;45.822;16.092;2022-10-10T00:37:31;12.47;77.81
66586;SHT30;53444;45.822;16.092;2022-10-10T00:39:58;12.54;77.28
66586;SHT30;53444;45.822;16.092;2022-10-10T00:42:26;12.50;77.78
66586;SHT30;53444;45.822;16.092;2022-10-10T00:45:19;12.47;77.70
66586;SHT30;53444;45.822;16.092;2022-10-10T00:47:47;12.50;77.42
66586;SHT30;53444;45.822;16.092;2022-10-10T00:50:15;12.65;77.03
66586;SHT30;53444;45.822;16.092;2022-10-10T00:52:42;12.75;76.88
66586;SHT30;53444;45.822;16.092;2022-10-10T00:55:10;12.91;76.46
66586;SHT30;53444;45.822;16.092;2022-10-10T00:57:38;12.95;76.70
66586;SHT30;53444;45.822;16.092;2022-10-10T01:00:06;12.96;76.68
66586;SHT30;53444;45.822;16.092;2022-10-10T01:02:33;12.89;77.38
66586;SHT30;53444;45.822;16.092;2022-10-10T01:05:00;12.96;77.44
66586;SHT30;53444;45.822;16.092;2022-10-10T01:07:28;12.98;77.22
66586;SHT30;53444;45.822;16.092;2022-10-10T01:09:58;12.99;77.16
66586;SHT30;53444;45.822;16.092;2022-10-10T01:12:29;12.78;77.96
66586;SHT30;53444;45.822;16.092;2022-10-10T01:15:05;12.80;78.14
66586;SHT30;53444;45.822;16.092;2022-10-10T01:17:38;12.71;79.08
66586;SHT30;53444;45.822;16.092;2022-10-10T01:20:20;12.64;78.83
66586;SHT30;53444;45.822;16.092;2022-10-10T01:25:51;12.31;79.88
66586;SHT30;53444;45.822;16.092;2022-10-10T01:28:28;12.10;80.66
66586;SHT30;53444;45.822;16.092;2022-10-10T01:30:58;11.91;80.95
66586;SHT30;53444;45.822;16.092;2022-10-10T01:33:30;11.93;80.72
66586;SHT30;53444;45.822;16.092;2022-10-10T01:36:01;11.75;81.15
66586;SHT30;53444;45.822;16.092;2022-10-10T01:38:35;11.76;80.03
66586;SHT30;53444;45.822;16.092;2022-10-10T01:41:08;11.73;79.65
66586;SHT30;53444;45.822;16.092;2022-10-10T01:43:37;11.86;79.66
66586;SHT30;53444;45.822;16.092;2022-10-10T01:46:08;11.91;80.10
66586;SHT30;53444;45.822;16.092;2022-10-10T01:48:36;11.93;80.20
66586;SHT30;53444;45.822;16.092;2022-10-10T01:51:19;12.13;79.80
66586;SHT30;53444;45.822;16.092;2022-10-10T01:53:55;12.24;79.40
66586;SHT30;53444;45.822;16.092;2022-10-10T01:56:31;12.31;79.42
66586;SHT30;53444;45.822;16.092;2022-10-10T01:59:10;12.33;79.37
66586;SHT30;53444;45.822;16.092;2022-10-10T02:01:46;12.36;79.36
66586;SHT30;53444;45.822;16.092;2022-10-10T02:04:21;12.42;79.40
66586;SHT30;53444;45.822;16.092;2022-10-10T02:06:52;12.51;79.26
66586;SHT30;53444;45.822;16.092;2022-10-10T02:09:27;12.51;79.49
66586;SHT30;53444;45.822;16.092;2022-10-10T02:11:55;12.57;79.40
66586;SHT30;53444;45.822;16.092;2022-10-10T02:14:28;12.52;79.63
66586;SHT30;53444;45.822;16.092;2022-10-10T02:16:57;12.57;79.46
66586;SHT30;53444;45.822;16.092;2022-10-10T02:19:26;12.51;79.97
66586;SHT30;53444;45.822;16.092;2022-10-10T02:21:53;12.52;80.25
66586;SHT30;53444;45.822;16.092;2022-10-10T02:24:22;12.51;80.41
66586;SHT30;53444;45.822;16.092;2022-10-10T02:26:55;12.55;80.37
66586;SHT30;53444;45.822;16.092;2022-10-10T02:29:28;12.57;80.42
66586;SHT30;53444;45.822;16.092;2022-10-10T02:32:02;12.61;80.13
66586;SHT30;53444;45.822;16.092;2022-10-10T02:34:32;12.60;80.60
66586;SHT30;53444;45.822;16.092;2022-10-10T02:37:02;12.67;80.42
66586;SHT30;53444;45.822;16.092;2022-10-10T02:39:32;12.71;80.12
66586;SHT30;53444;45.822;16.092;2022-10-10T02:42:01;12.74;79.77
66586;SHT30;53444;45.822;16.092;2022-10-10T02:44:30;12.82;79.39
66586;SHT30;53444;45.822;16.092;2022-10-10T02:47:01;12.84;79.29
66586;SHT30;53444;45.822;16.092;2022-10-10T02:49:30;12.89;79.13
66586;SHT30;53444;45.822;16.092;2022-10-10T02:51:58;12.89;78.79
66586;SHT30;53444;45.822;16.092;2022-10-10T02:54:25;12.93;78.68
66586;SHT30;53444;45.822;16.092;2022-10-10T02:56:52;12.98;78.27
66586;SHT30;53444;45.822;16.092;2022-10-10T02:59:19;12.99;78.18
66586;SHT30;53444;45.822;16.092;2022-10-10T03:04:14;13.05;77.38
66586;SHT30;53444;45.822;16.092;2022-10-10T03:06:50;13.06;76.92
66586;SHT30;53444;45.822;16.092;2022-10-10T03:14:38;13.06;76.11
66586;SHT30;53444;45.822;16.092;2022-10-10T03:23:12;12.96;76.22
66586;SHT30;53444;45.822;16.092;2022-10-10T03:25:40;12.96;76.37
66586;SHT30;53444;45.822;16.092;2022-10-10T03:28:08;12.95;76.40
66586;SHT30;53444;45.822;16.092;2022-10-10T03:30:35;12.99;76.37
66586;SHT30;53444;45.822;16.092;2022-10-10T03:33:02;13.05;76.74
66586;SHT30;53444;45.822;16.092;2022-10-10T03:35:29;13.09;76.08
66586;SHT30;53444;45.822;16.092;2022-10-10T03:37:57;13.12;76.12
66586;SHT30;53444;45.822;16.092;2022-10-10T03:40:26;13.15;75.96
66586;SHT30;53444;45.822;16.092;2022-10-10T03:42:53;13.15;75.92
66586;SHT30;53444;45.822;16.092;2022-10-10T03:45:20;13.13;75.92
66586;SHT30;53444;45.822;16.092;2022-10-10T03:47:47;13.12;76.19
66586;SHT30;53444;45.822;16.092;2022-10-10T03:50:14;13.18;75.92
66586;SHT30;53444;45.822;16.092;2022-10-10T03:52:41;13.19;75.99
66586;SHT30;53444;45.822;16.092;2022-10-10T03:55:08;13.18;75.82
66586;SHT30;53444;45.822;16.092;2022-10-10T03:57:36;13.19;75.97
66586;SHT30;53444;45.822;16.092;2022-10-10T04:00:03;13.19;75.95
66586;SHT30;53444;45.822;16.092;2022-10-10T04:02:30;13.18;76.02
66586;SHT30;53444;45.822;16.092;2022-10-10T04:04:56;13.13;76.35
66586;SHT30;53444;45.822;16.092;2022-10-10T04:07:23;13.16;76.34
66586;SHT30;53444;45.822;16.092;2022-10-10T04:09:50;13.16;76.28
66586;SHT30;53444;45.822;16.092;2022-10-10T04:12:16;13.19;76.20
66586;SHT30;53444;45.822;16.092;2022-10-10T04:14:45;13.20;76.35
66586;SHT30;53444;45.822;16.092;2022-10-10T04:17:11;13.23;76.17
66586;SHT30;53444;45.822;16.092;2022-10-10T04:19:38;13.16;76.57
66586;SHT30;53444;45.822;16.092;2022-10-10T04:22:05;13.15;76.49
66586;SHT30;53444;45.822;16.092;2022-10-10T04:24:32;13.16;76.56
66586;SHT30;53444;45.822;16.092;2022-10-10T04:26:59;13.13;76.74
66586;SHT30;53444;45.822;16.092;2022-10-10T04:29:26;13.19;76.47
66586;SHT30;53444;45.822;16.092;2022-10-10T04:31:54;13.19;76.64
66586;SHT30;53444;45.822;16.092;2022-10-10T04:34:21;13.24;76.44
66586;SHT30;53444;45.822;16.092;2022-10-10T04:36:47;13.29;76.33
66586;SHT30;53444;45.822;16.092;2022-10-10T04:39:14;13.27;76.31
66586;SHT30;53444;45.822;16.092;2022-10-10T04:41:41;13.29;76.20
66586;SHT30;53444;45.822;16.092;2022-10-10T04:44:07;13.29;76.39
66586;SHT30;53444;45.822;16.092;2022-10-10T04:46:34;13.29;76.28
66586;SHT30;53444;45.822;16.092;2022-10-10T04:49:03;13.26;76.55
66586;SHT30;53444;45.822;16.092;2022-10-10T04:51:30;13.27;76.51
66586;SHT30;53444;45.822;16.092;2022-10-10T04:53:57;13.29;76.49
66586;SHT30;53444;45.822;16.092;2022-10-10T04:56:24;13.29;76.50
66586;SHT30;53444;45.822;16.092;2022-10-10T04:58:50;13.33;76.45
66586;SHT30;53444;45.822;16.092;2022-10-10T05:01:17;13.29;76.56
66586;SHT30;53444;45.822;16.092;2022-10-10T05:03:44;13.26;76.65
66586;SHT30;53444;45.822;16.092;2022-10-10T05:06:12;13.24;76.98
66586;SHT30;53444;45.822;16.092;2022-10-10T05:08:38;13.26;77.04
66586;SHT30;53444;45.822;16.092;2022-10-10T05:11:05;13.27;77.00
66586;SHT30;53444;45.822;16.092;2022-10-10T05:13:32;13.27;76.95
66586;SHT30;53444;45.822;16.092;2022-10-10T05:15:58;13.27;76.98
66586;SHT30;53444;45.822;16.092;2022-10-10T05:18:25;13.24;77.38
66586;SHT30;53444;45.822;16.092;2022-10-10T05:20:52;13.33;77.18
66586;SHT30;53444;45.822;16.092;2022-10-10T05:23:20;13.33;77.35
66586;SHT30;53444;45.822;16.092;2022-10-10T05:25:56;13.32;77.21
66586;SHT30;53444;45.822;16.092;2022-10-10T05:28:23;13.32;77.46
66586;SHT30;53444;45.822;16.092;2022-10-10T05:30:50;13.26;77.79
66586;SHT30;53444;45.822;16.092;2022-10-10T05:33:17;13.27;77.58
66586;SHT30;53444;45.822;16.092;2022-10-10T05:35:44;13.30;77.51
66586;SHT30;53444;45.822;16.092;2022-10-10T05:38:10;13.32;77.83
66586;SHT30;53444;45.822;16.092;2022-10-10T05:40:39;13.27;77.76
66586;SHT30;53444;45.822;16.092;2022-10-10T05:43:07;13.36;77.55
66586;SHT30;53444;45.822;16.092;2022-10-10T05:45:33;13.42;77.49
66586;SHT30;53444;45.822;16.092;2022-10-10T05:48:01;13.43;77.68
66586;SHT30;53444;45.822;16.092;2022-10-10T05:50:32;13.44;77.79
66586;SHT30;53444;45.822;16.092;2022-10-10T05:52:59;13.43;77.92
66586;SHT30;53444;45.822;16.092;2022-10-10T05:55:26;13.40;77.92
66586;SHT30;53444;45.822;16.092;2022-10-10T05:57:54;13.44;77.81
66586;SHT30;53444;45.822;16.092;2022-10-10T06:00:21;13.50;77.73
66586;SHT30;53444;45.822;16.092;2022-10-10T06:02:47;13.54;77.58
66586;SHT30;53444;45.822;16.092;2022-10-10T06:05:14;13.54;77.74
66586;SHT30;53444;45.822;16.092;2022-10-10T06:07:41;13.49;77.80
66586;SHT30;53444;45.822;16.092;2022-10-10T06:10:09;13.52;78.04
66586;SHT30;53444;45.822;16.092;2022-10-10T06:12:35;13.53;77.92
66586;SHT30;53444;45.822;16.092;2022-10-10T06:15:04;13.50;77.69
66586;SHT30;53444;45.822;16.092;2022-10-10T06:17:31;13.59;77.93
66586;SHT30;53444;45.822;16.092;2022-10-10T06:19:58;13.62;77.79
66586;SHT30;53444;45.822;16.092;2022-10-10T06:22:25;13.63;78.01
66586;SHT30;53444;45.822;16.092;2022-10-10T06:24:51;13.63;78.19
66586;SHT30;53444;45.822;16.092;2022-10-10T06:27:18;13.67;77.77
66586;SHT30;53444;45.822;16.092;2022-10-10T06:29:45;13.67;78.56
66586;SHT30;53444;45.822;16.092;2022-10-10T06:32:13;13.70;78.16
66586;SHT30;53444;45.822;16.092;2022-10-10T06:34:40;13.64;78.30
66586;SHT30;53444;45.822;16.092;2022-10-10T06:37:06;13.67;78.51
66586;SHT30;53444;45.822;16.092;2022-10-10T06:39:34;13.69;78.37
66586;SHT30;53444;45.822;16.092;2022-10-10T06:42:03;13.78;78.22
66586;SHT30;53444;45.822;16.092;2022-10-10T06:44:30;13.75;78.58
66586;SHT30;53444;45.822;16.092;2022-10-10T06:46:56;13.78;78.45
66586;SHT30;53444;45.822;16.092;2022-10-10T06:49:24;13.80;78.52
66586;SHT30;53444;45.822;16.092;2022-10-10T06:51:51;13.80;78.68
66586;SHT30;53444;45.822;16.092;2022-10-10T06:54:18;13.83;78.82
66586;SHT30;53444;45.822;16.092;2022-10-10T06:56:44;13.84;78.64
66586;SHT30;53444;45.822;16.092;2022-10-10T06:59:16;13.88;78.66
66586;SHT30;53444;45.822;16.092;2022-10-10T07:01:49;13.88;78.81
66586;SHT30;53444;45.822;16.092;2022-10-10T07:04:16;13.91;78.70
66586;SHT30;53444;45.822;16.092;2022-10-10T07:06:44;13.88;78.35
66586;SHT30;53444;45.822;16.092;2022-10-10T07:09:11;13.94;78.29
66586;SHT30;53444;45.822;16.092;2022-10-10T07:11:37;13.94;78.52
66586;SHT30;53444;45.822;16.092;2022-10-10T07:14:09;13.97;78.45
66586;SHT30;53444;45.822;16.092;2022-10-10T07:16:36;14.03;78.06
66586;SHT30;53444;45.822;16.092;2022-10-10T07:19:03;14.08;78.17
66586;SHT30;53444;45.822;16.092;2022-10-10T07:21:30;14.14;77.93
66586;SHT30;53444;45.822;16.092;2022-10-10T07:23:58;14.15;77.62
66586;SHT30;53444;45.822;16.092;2022-10-10T07:26:24;14.26;77.75
66586;SHT30;53444;45.822;16.092;2022-10-10T07:28:55;14.35;77.56
66586;SHT30;53444;45.822;16.092;2022-10-10T07:31:22;14.41;77.33
66586;SHT30;53444;45.822;16.092;2022-10-10T07:33:49;14.44;77.20
66586;SHT30;53444;45.822;16.092;2022-10-10T07:36:17;14.52;77.17
66586;SHT30;53444;45.822;16.092;2022-10-10T07:38:44;14.32;77.93
66586;SHT30;53444;45.822;16.092;2022-10-10T07:41:12;14.42;77.04
66586;SHT30;53444;45.822;16.092;2022-10-10T07:43:39;14.51;76.92
66586;SHT30;53444;45.822;16.092;2022-10-10T07:46:13;14.51;76.50
66586;SHT30;53444;45.822;16.092;2022-10-10T07:48:40;14.55;76.58
66586;SHT30;53444;45.822;16.092;2022-10-10T07:51:07;14.63;76.70
66586;SHT30;53444;45.822;16.092;2022-10-10T07:53:34;14.69;76.36
66586;SHT30;53444;45.822;16.092;2022-10-10T07:56:03;14.75;76.06
66586;SHT30;53444;45.822;16.092;2022-10-10T07:58:31;14.80;75.84
66586;SHT30;53444;45.822;16.092;2022-10-10T08:01:02;14.85;75.62
66586;SHT30;53444;45.822;16.092;2022-10-10T08:03:29;14.85;75.45
66586;SHT30;53444;45.822;16.092;2022-10-10T08:05:56;14.79;76.55
66586;SHT30;53444;45.822;16.092;2022-10-10T08:08:23;14.89;75.76
66586;SHT30;53444;45.822;16.092;2022-10-10T08:10:50;14.86;75.55
66586;SHT30;53444;45.822;16.092;2022-10-10T08:13:16;14.93;75.67
66586;SHT30;53444;45.822;16.092;2022-10-10T08:15:44;14.86;75.88
66586;SHT30;53444;45.822;16.092;2022-10-10T08:18:15;14.92;75.40
66586;SHT30;53444;45.822;16.092;2022-10-10T08:20:42;15.03;75.65
66586;SHT30;53444;45.822;16.092;2022-10-10T08:23:09;15.17;75.05
66586;SHT30;53444;45.822;16.092;2022-10-10T08:25:35;15.19;74.72
66586;SHT30;53444;45.822;16.092;2022-10-10T08:28:02;15.17;75.12
66586;SHT30;53444;45.822;16.092;2022-10-10T08:30:29;15.30;74.77
66586;SHT30;53444;45.822;16.092;2022-10-10T08:32:57;15.48;74.29
66586;SHT30;53444;45.822;16.092;2022-10-10T08:35:25;15.36;74.23
66586;SHT30;53444;45.822;16.092;2022-10-10T08:37:52;15.62;73.55
66586;SHT30;53444;45.822;16.092;2022-10-10T08:40:19;15.77;73.12
66586;SHT30;53444;45.822;16.092;2022-10-10T08:42:49;15.94;73.02
66586;SHT30;53444;45.822;16.092;2022-10-10T08:45:20;16.02;72.34
66586;SHT30;53444;45.822;16.092;2022-10-10T08:47:50;16.02;72.45
66586;SHT30;53444;45.822;16.092;2022-10-10T08:50:24;16.04;72.19
66586;SHT30;53444;45.822;16.092;2022-10-10T08:52:56;16.26;71.75
66586;SHT30;53444;45.822;16.092;2022-10-10T08:55:28;16.34;72.06
66586;SHT30;53444;45.822;16.092;2022-10-10T08:58:02;16.43;71.91
66586;SHT30;53444;45.822;16.092;2022-10-10T09:00:36;16.59;70.81
66586;SHT30;53444;45.822;16.092;2022-10-10T09:03:14;16.66;70.14
66586;SHT30;53444;45.822;16.092;2022-10-10T09:05:55;16.56;71.12
66586;SHT30;53444;45.822;16.092;2022-10-10T09:08:33;16.73;70.47
66586;SHT30;53444;45.822;16.092;2022-10-10T09:11:07;16.52;70.52
66586;SHT30;53444;45.822;16.092;2022-10-10T09:13:38;16.67;70.15
66586;SHT30;53444;45.822;16.092;2022-10-10T09:16:19;16.84;69.83
66586;SHT30;53444;45.822;16.092;2022-10-10T09:18:53;16.83;69.55
66586;SHT30;53444;45.822;16.092;2022-10-10T09:21:27;16.90;69.27
66586;SHT30;53444;45.822;16.092;2022-10-10T09:24:01;17.07;69.25
66586;SHT30;53444;45.822;16.092;2022-10-10T09:26:33;17.15;69.28
66586;SHT30;53444;45.822;16.092;2022-10-10T09:29:03;17.21;68.64
66586;SHT30;53444;45.822;16.092;2022-10-10T09:31:34;17.24;69.56
66586;SHT30;53444;45.822;16.092;2022-10-10T09:34:07;17.49;68.92
66586;SHT30;53444;45.822;16.092;2022-10-10T09:36:39;17.63;68.03
66586;SHT30;53444;45.822;16.092;2022-10-10T09:39:16;17.86;67.51
66586;SHT30;53444;45.822;16.092;2022-10-10T09:41:46;17.96;68.41
66586;SHT30;53444;45.822;16.092;2022-10-10T09:44:18;18.21;67.29
66586;SHT30;53444;45.822;16.092;2022-10-10T09:46:45;18.31;66.43
66586;SHT30;53444;45.822;16.092;2022-10-10T09:49:13;18.48;66.29
66586;SHT30;53444;45.822;16.092;2022-10-10T09:51:42;18.44;65.64
66586;SHT30;53444;45.822;16.092;2022-10-10T09:54:09;18.17;65.92
66586;SHT30;53444;45.822;16.092;2022-10-10T09:56:39;18.04;66.46
66586;SHT30;53444;45.822;16.092;2022-10-10T09:59:36;18.30;66.45
66586;SHT30;53444;45.822;16.092;2022-10-10T10:02:15;18.57;65.19
66586;SHT30;53444;45.822;16.092;2022-10-10T10:04:43;18.72;65.24
66586;SHT30;53444;45.822;16.092;2022-10-10T10:07:24;18.84;64.29
66586;SHT30;53444;45.822;16.092;2022-10-10T10:09:53;18.99;63.20
66586;SHT30;53444;45.822;16.092;2022-10-10T10:12:22;18.94;63.39
66586;SHT30;53444;45.822;16.092;2022-10-10T10:14:51;19.42;62.73
66586;SHT30;53444;45.822;16.092;2022-10-10T10:17:22;19.57;61.85
66586;SHT30;53444;45.822;16.092;2022-10-10T10:19:50;19.40;62.01
66586;SHT30;53444;45.822;16.092;2022-10-10T10:22:29;19.26;62.92
66586;SHT30;53444;45.822;16.092;2022-10-10T10:24:57;19.37;63.10
66586;SHT30;53444;45.822;16.092;2022-10-10T10:27:25;19.88;62.24
66586;SHT30;53444;45.822;16.092;2022-10-10T10:29:54;20.27;61.03
66586;SHT30;53444;45.822;16.092;2022-10-10T10:32:41;20.51;60.19
66586;SHT30;53444;45.822;16.092;2022-10-10T10:35:31;20.48;59.51
66586;SHT30;53444;45.822;16.092;2022-10-10T10:38:19;20.45;61.53
66586;SHT30;53444;45.822;16.092;2022-10-10T10:40:56;20.17;62.17
66586;SHT30;53444;45.822;16.092;2022-10-10T10:46:35;21.00;59.81
66586;SHT30;53444;45.822;16.092;2022-10-10T10:49:09;21.17;59.02
66586;SHT30;53444;45.822;16.092;2022-10-10T10:52:12;21.43;58.41
66586;SHT30;53444;45.822;16.092;2022-10-10T10:54:58;21.31;58.24
66586;SHT30;53444;45.822;16.092;2022-10-10T10:57:33;21.20;59.39
66586;SHT30;53444;45.822;16.092;2022-10-10T11:00:23;21.62;57.49
66586;SHT30;53444;45.822;16.092;2022-10-10T11:03:02;20.34;60.10
66586;SHT30;53444;45.822;16.092;2022-10-10T11:05:36;20.90;60.68
66586;SHT30;53444;45.822;16.092;2022-10-10T11:08:21;21.27;60.15
66586;SHT30;53444;45.822;16.092;2022-10-10T11:10:59;21.55;58.92
66586;SHT30;53444;45.822;16.092;2022-10-10T11:13:36;22.28;57.58
66586;SHT30;53444;45.822;16.092;2022-10-10T11:16:09;22.16;55.98
66586;SHT30;53444;45.822;16.092;2022-10-10T11:18:41;22.16;58.06
66586;SHT30;53444;45.822;16.092;2022-10-10T11:21:14;22.12;56.80
66586;SHT30;53444;45.822;16.092;2022-10-10T11:23:45;22.10;57.60
66586;SHT30;53444;45.822;16.092;2022-10-10T11:26:17;22.22;56.60
66586;SHT30;53444;45.822;16.092;2022-10-10T11:28:49;21.14;58.98
66586;SHT30;53444;45.822;16.092;2022-10-10T11:31:21;21.68;57.54
66586;SHT30;53444;45.822;16.092;2022-10-10T11:33:52;22.16;56.57
66586;SHT30;53444;45.822;16.092;2022-10-10T11:36:21;22.73;55.47
66586;SHT30;53444;45.822;16.092;2022-10-10T11:38:53;22.84;55.64
66586;SHT30;53444;45.822;16.092;2022-10-10T11:41:25;23.22;55.49
66586;SHT30;53444;45.822;16.092;2022-10-10T11:43:55;23.65;54.07
66586;SHT30;53444;45.822;16.092;2022-10-10T11:46:29;23.62;54.15
66586;SHT30;53444;45.822;16.092;2022-10-10T11:49:06;23.51;54.47
66586;SHT30;53444;45.822;16.092;2022-10-10T11:51:40;22.49;55.47
66586;SHT30;53444;45.822;16.092;2022-10-10T11:54:15;22.43;56.56
66586;SHT30;53444;45.822;16.092;2022-10-10T11:56:49;22.77;56.68
66586;SHT30;53444;45.822;16.092;2022-10-10T11:59:22;22.38;56.81
66586;SHT30;53444;45.822;16.092;2022-10-10T12:01:53;22.50;55.93
66586;SHT30;53444;45.822;16.092;2022-10-10T12:04:21;22.12;57.86
66586;SHT30;53444;45.822;16.092;2022-10-10T12:06:52;21.89;57.85
66586;SHT30;53444;45.822;16.092;2022-10-10T12:09:23;21.48;59.73
66586;SHT30;53444;45.822;16.092;2022-10-10T12:11:55;21.14;60.67
66586;SHT30;53444;45.822;16.092;2022-10-10T12:14:25;21.44;60.02
66586;SHT30;53444;45.822;16.092;2022-10-10T12:16:52;21.43;59.25
66586;SHT30;53444;45.822;16.092;2022-10-10T12:19:21;21.17;59.65
66586;SHT30;53444;45.822;16.092;2022-10-10T12:21:53;20.80;61.48
66586;SHT30;53444;45.822;16.092;2022-10-10T12:24:20;20.17;63.28
66586;SHT30;53444;45.822;16.092;2022-10-10T12:30:22;21.37;60.68
66586;SHT30;53444;45.822;16.092;2022-10-10T12:32:50;21.61;60.04
66586;SHT30;53444;45.822;16.092;2022-10-10T12:35:36;21.46;60.20
66586;SHT30;53444;45.822;16.092;2022-10-10T12:38:22;20.97;61.80
66586;SHT30;53444;45.822;16.092;2022-10-10T12:41:09;20.77;61.18
66586;SHT30;53444;45.822;16.092;2022-10-10T12:43:42;20.56;62.15
66586;SHT30;53444;45.822;16.092;2022-10-10T12:46:26;20.83;61.60
66586;SHT30;53444;45.822;16.092;2022-10-10T12:49:13;20.96;62.42
66586;SHT30;53444;45.822;16.092;2022-10-10T12:51:42;20.64;62.14
66586;SHT30;53444;45.822;16.092;2022-10-10T12:54:20;20.89;62.21
66586;SHT30;53444;45.822;16.092;2022-10-10T12:56:52;20.59;62.89
66586;SHT30;53444;45.822;16.092;2022-10-10T12:59:24;20.69;62.13
66586;SHT30;53444;45.822;16.092;2022-10-10T13:01:56;20.85;61.95
66586;SHT30;53444;45.822;16.092;2022-10-10T13:04:24;20.90;61.85
66586;SHT30;53444;45.822;16.092;2022-10-10T13:06:55;20.96;61.96
66586;SHT30;53444;45.822;16.092;2022-10-10T13:09:24;20.95;62.16
66586;SHT30;53444;45.822;16.092;2022-10-10T13:11:56;21.65;60.61
66586;SHT30;53444;45.822;16.092;2022-10-10T13:14:25;22.19;58.56
66586;SHT30;53444;45.822;16.092;2022-10-10T13:16:53;22.01;58.98
66586;SHT30;53444;45.822;16.092;2022-10-10T13:19:22;21.23;60.16
66586;SHT30;53444;45.822;16.092;2022-10-10T13:21:51;20.03;64.27
66586;SHT30;53444;45.822;16.092;2022-10-10T13:24:21;20.69;62.25
66586;SHT30;53444;45.822;16.092;2022-10-10T13:26:50;20.69;62.45
66586;SHT30;53444;45.822;16.092;2022-10-10T13:29:26;20.97;61.56
66586;SHT30;53444;45.822;16.092;2022-10-10T13:31:57;22.13;59.85
66586;SHT30;53444;45.822;16.092;2022-10-10T13:34:28;22.55;58.13
66586;SHT30;53444;45.822;16.092;2022-10-10T13:37:00;22.87;57.08
66586;SHT30;53444;45.822;16.092;2022-10-10T13:39:29;23.11;56.98
66586;SHT30;53444;45.822;16.092;2022-10-10T13:41:56;22.50;55.85
66586;SHT30;53444;45.822;16.092;2022-10-10T13:44:28;21.78;59.08
66586;SHT30;53444;45.822;16.092;2022-10-10T13:46:57;21.58;59.32
66586;SHT30;53444;45.822;16.092;2022-10-10T13:49:25;21.57;60.05
66586;SHT30;53444;45.822;16.092;2022-10-10T13:52:00;21.36;60.74
66586;SHT30;53444;45.822;16.092;2022-10-10T13:54:42;21.27;60.37
66586;SHT30;53444;45.822;16.092;2022-10-10T13:57:16;20.83;61.29
66586;SHT30;53444;45.822;16.092;2022-10-10T13:59:44;20.65;62.12
66586;SHT30;53444;45.822;16.092;2022-10-10T14:02:14;20.72;62.53
66586;SHT30;53444;45.822;16.092;2022-10-10T14:04:46;20.24;63.16
66586;SHT30;53444;45.822;16.092;2022-10-10T14:07:16;19.36;66.28
66586;SHT30;53444;45.822;16.092;2022-10-10T14:09:47;19.25;66.59
66586;SHT30;53444;45.822;16.092;2022-10-10T14:12:18;19.19;67.11
66586;SHT30;53444;45.822;16.092;2022-10-10T14:14:50;19.67;66.12
66586;SHT30;53444;45.822;16.092;2022-10-10T14:17:18;19.47;65.75
66586;SHT30;53444;45.822;16.092;2022-10-10T14:19:46;19.33;66.61
66586;SHT30;53444;45.822;16.092;2022-10-10T14:22:13;19.56;66.24
66586;SHT30;53444;45.822;16.092;2022-10-10T14:24:39;19.60;65.92
66586;SHT30;53444;45.822;16.092;2022-10-10T14:27:13;19.98;65.70
66586;SHT30;53444;45.822;16.092;2022-10-10T14:29:41;20.24;65.10
66586;SHT30;53444;45.822;16.092;2022-10-10T14:32:08;20.35;63.46
66586;SHT30;53444;45.822;16.092;2022-10-10T14:34:37;20.25;63.99
66586;SHT30;53444;45.822;16.092;2022-10-10T14:37:08;20.21;64.54
66586;SHT30;53444;45.822;16.092;2022-10-10T14:39:38;19.64;65.88
66586;SHT30;53444;45.822;16.092;2022-10-10T14:42:08;19.52;65.79
66586;SHT30;53444;45.822;16.092;2022-10-10T14:44:36;19.71;66.00
66586;SHT30;53444;45.822;16.092;2022-10-10T14:47:03;19.69;65.90
66586;SHT30;53444;45.822;16.092;2022-10-10T14:49:29;19.11;67.05
66586;SHT30;53444;45.822;16.092;2022-10-10T14:51:57;18.74;68.35
66586;SHT30;53444;45.822;16.092;2022-10-10T14:54:25;19.18;67.38
66586;SHT30;53444;45.822;16.092;2022-10-10T14:56:52;18.96;68.23
66586;SHT30;53444;45.822;16.092;2022-10-10T14:59:19;19.06;68.57
66586;SHT30;53444;45.822;16.092;2022-10-10T15:01:47;19.18;68.45
66586;SHT30;53444;45.822;16.092;2022-10-10T15:04:13;18.98;69.12
66586;SHT30;53444;45.822;16.092;2022-10-10T15:06:40;19.06;68.00
66586;SHT30;53444;45.822;16.092;2022-10-10T15:09:09;18.98;68.54
66586;SHT30;53444;45.822;16.092;2022-10-10T15:11:36;18.72;69.12
66586;SHT30;53444;45.822;16.092;2022-10-10T15:14:05;18.62;69.50
66586;SHT30;53444;45.822;16.092;2022-10-10T15:16:34;18.50;70.07
66586;SHT30;53444;45.822;16.092;2022-10-10T15:19:01;18.67;69.79
66586;SHT30;53444;45.822;16.092;2022-10-10T15:21:27;18.91;69.07
66586;SHT30;53444;45.822;16.092;2022-10-10T15:23:54;19.09;68.77
66586;SHT30;53444;45.822;16.092;2022-10-10T15:26:22;18.74;69.89
66586;SHT30;53444;45.822;16.092;2022-10-10T15:28:49;18.76;70.00
66586;SHT30;53444;45.822;16.092;2022-10-10T15:31:17;18.60;70.75
66586;SHT30;53444;45.822;16.092;2022-10-10T15:33:44;18.76;70.52
66586;SHT30;53444;45.822;16.092;2022-10-10T15:36:10;18.33;72.06
66586;SHT30;53444;45.822;16.092;2022-10-10T15:38:37;18.31;72.54
66586;SHT30;53444;45.822;16.092;2022-10-10T15:41:06;18.11;72.44
66586;SHT30;53444;45.822;16.092;2022-10-10T15:43:41;18.14;72.31
66586;SHT30;53444;45.822;16.092;2022-10-10T15:46:08;18.04;73.54
66586;SHT30;53444;45.822;16.092;2022-10-10T15:48:35;18.13;73.10
66586;SHT30;53444;45.822;16.092;2022-10-10T15:51:04;18.21;72.93
66586;SHT30;53444;45.822;16.092;2022-10-10T15:53:31;18.31;72.26
66586;SHT30;53444;45.822;16.092;2022-10-10T15:55:57;18.38;71.89